sensor_id;sensor_type;location;lat;lon;timestamp;P1;P2;P0
73973;PMS5003;62336;-26.094;27.994;2023-06-14T00:01:47;39;37;
73973;PMS5003;62336;-26.094;27.994;2023-06-14T00:04:12;36;28;
73973;PMS5003;62336;-26.094;27.994;2023-06-14T00:06:38;31;29;
73973;PMS5003;62336;-26.094;27.994;2023-06-14T00:09:03;23;21;
73973;PMS5003;62336;-26.094;27.994;2023-06-14T00:11:28;26;21;
73973;PMS5003;62336;-26.094;27.994;2023-06-14T00:13:54;22;20;
73973;PMS5003;62336;-26.094;27.994;2023-06-14T00:16:20;19;18;
73973;PMS5003;62336;-26.094;27.994;2023-06-14T00:18:45;23;20;
73973;PMS5003;62336;-26.094;27.994;2023-06-14T00:21:11;22;20;
73973;PMS5003;62336;-26.094;27.994;2023-06-14T00:23:36;27;25;
73973;PMS5003;62336;-26.094;27.994;2023-06-14T00:26:02;26;25;
73973;PMS5003;62336;-26.094;27.994;2023-06-14T00:28:28;29;27;
73973;PMS5003;62336;-26.094;27.994;2023-06-14T00:30:53;39;36;
73973;PMS5003;62336;-26.094;27.994;2023-06-14T00:33:18;47;44;
73973;PMS5003;62336;-26.094;27.994;2023-06-14T00:35:44;45;42;
73973;PMS5003;62336;-26.094;27.994;2023-06-14T00:38:09;44;39;
73973;PMS5003;62336;-26.094;27.994;2023-06-14T00:40:35;41;39;
73973;PMS5003;62336;-26.094;27.994;2023-06-14T00:43:00;42;36;
73973;PMS5003;62336;-26.094;27.994;2023-06-14T00:45:26;37;37;
73973;PMS5003;62336;-26.094;27.994;2023-06-14T00:47:51;32;32;
73973;PMS5003;62336;-26.094;27.994;2023-06-14T00:50:16;35;34;
73973;PMS5003;62336;-26.094;27.994;2023-06-14T00:52:41;36;36;
73973;PMS5003;62336;-26.094;27.994;2023-06-14T00:55:06;38;36;
73973;PMS5003;62336;-26.094;27.994;2023-06-14T00:57:32;35;33;
73973;PMS5003;62336;-26.094;27.994;2023-06-14T00:59:58;42;35;
73973;PMS5003;62336;-26.094;27.994;2023-06-14T01:02:23;41;39;
73973;PMS5003;62336;-26.094;27.994;2023-06-14T01:04:49;41;36;
73973;PMS5003;62336;-26.094;27.994;2023-06-14T01:07:20;46;42;
73973;PMS5003;62336;-26.094;27.994;2023-06-14T01:09:41;40;37;
73973;PMS5003;62336;-26.094;27.994;2023-06-14T01:12:05;42;40;
73973;PMS5003;62336;-26.094;27.994;2023-06-14T01:14:30;38;35;
73973;PMS5003;62336;-26.094;27.994;2023-06-14T01:16:56;40;37;
73973;PMS5003;62336;-26.094;27.994;2023-06-14T01:19:21;34;32;
73973;PMS5003;62336;-26.094;27.994;2023-06-14T01:21:47;30;30;
73973;PMS5003;62336;-26.094;27.994;2023-06-14T01:24:13;41;38;
73973;PMS5003;62336;-26.094;27.994;2023-06-14T01:26:38;38;36;
73973;PMS5003;62336;-26.094;27.994;2023-06-14T01:29:03;41;37;
73973;PMS5003;62336;-26.094;27.994;2023-06-14T01:31:28;34;31;
73973;PMS5003;62336;-26.094;27.994;2023-06-14T01:33:53;32;30;
73973;PMS5003;62336;-26.094;27.994;2023-06-14T01:36:19;34;31;
73973;PMS5003;62336;-26.094;27.994;2023-06-14T01:38:44;30;29;
73973;PMS5003;62336;-26.094;27.994;2023-06-14T01:41:10;38;38;
73973;PMS5003;62336;-26.094;27.994;2023-06-14T01:43:35;33;31;
73973;PMS5003;62336;-26.094;27.994;2023-06-14T01:46:00;29;29;
73973;PMS5003;62336;-26.094;27.994;2023-06-14T01:48:25;32;31;
73973;PMS5003;62336;-26.094;27.994;2023-06-14T01:50:52;34;30;
73973;PMS5003;62336;-26.094;27.994;2023-06-14T01:58:07;26;25;
73973;PMS5003;62336;-26.094;27.994;2023-06-14T02:00:32;17;17;
73973;PMS5003;62336;-26.094;27.994;2023-06-14T02:02:58;17;17;
73973;PMS5003;62336;-26.094;27.994;2023-06-14T02:05:23;15;15;
73973;PMS5003;62336;-26.094;27.994;2023-06-14T02:07:48;18;17;
73973;PMS5003;62336;-26.094;27.994;2023-06-14T02:10:14;23;21;
73973;PMS5003;62336;-26.094;27.994;2023-06-14T02:12:39;22;21;
73973;PMS5003;62336;-26.094;27.994;2023-06-14T02:15:05;29;28;
73973;PMS5003;62336;-26.094;27.994;2023-06-14T02:17:31;27;25;
73973;PMS5003;62336;-26.094;27.994;2023-06-14T02:19:56;24;23;
73973;PMS5003;62336;-26.094;27.994;2023-06-14T02:22:21;23;22;
73973;PMS5003;62336;-26.094;27.994;2023-06-14T02:24:47;23;20;
73973;PMS5003;62336;-26.094;27.994;2023-06-14T02:27:12;25;23;
73973;PMS5003;62336;-26.094;27.994;2023-06-14T02:29:37;27;25;
73973;PMS5003;62336;-26.094;27.994;2023-06-14T02:32:02;22;21;
73973;PMS5003;62336;-26.094;27.994;2023-06-14T02:34:28;29;27;
73973;PMS5003;62336;-26.094;27.994;2023-06-14T02:36:53;30;27;
73973;PMS5003;62336;-26.094;27.994;2023-06-14T02:39:18;32;31;
73973;PMS5003;62336;-26.094;27.994;2023-06-14T02:41:43;34;31;
73973;PMS5003;62336;-26.094;27.994;2023-06-14T02:44:09;36;34;
73973;PMS5003;62336;-26.094;27.994;2023-06-14T02:46:34;44;40;
73973;PMS5003;62336;-26.094;27.994;2023-06-14T02:48:59;40;38;
73973;PMS5003;62336;-26.094;27.994;2023-06-14T02:51:25;31;30;
73973;PMS5003;62336;-26.094;27.994;2023-06-14T02:53:50;30;25;
73973;PMS5003;62336;-26.094;27.994;2023-06-14T02:56:15;32;30;
73973;PMS5003;62336;-26.094;27.994;2023-06-14T02:58:41;28;28;
73973;PMS5003;62336;-26.094;27.994;2023-06-14T03:01:06;32;31;
73973;PMS5003;62336;-26.094;27.994;2023-06-14T03:03:31;34;33;
73973;PMS5003;62336;-26.094;27.994;2023-06-14T03:05:57;34;32;
73973;PMS5003;62336;-26.094;27.994;2023-06-14T03:08:22;37;34;
73973;PMS5003;62336;-26.094;27.994;2023-06-14T03:10:48;36;34;
73973;PMS5003;62336;-26.094;27.994;2023-06-14T03:13:13;32;32;
73973;PMS5003;62336;-26.094;27.994;2023-06-14T03:15:38;33;33;
73973;PMS5003;62336;-26.094;27.994;2023-06-14T03:18:03;32;31;
73973;PMS5003;62336;-26.094;27.994;2023-06-14T03:20:29;36;34;
73973;PMS5003;62336;-26.094;27.994;2023-06-14T03:22:54;35;29;
73973;PMS5003;62336;-26.094;27.994;2023-06-14T03:25:19;39;29;
73973;PMS5003;62336;-26.094;27.994;2023-06-14T03:27:45;32;29;
73973;PMS5003;62336;-26.094;27.994;2023-06-14T03:30:11;36;32;
73973;PMS5003;62336;-26.094;27.994;2023-06-14T03:32:36;29;27;
73973;PMS5003;62336;-26.094;27.994;2023-06-14T03:35:02;36;32;
73973;PMS5003;62336;-26.094;27.994;2023-06-14T03:37:27;34;28;
73973;PMS5003;62336;-26.094;27.994;2023-06-14T03:39:52;27;27;
73973;PMS5003;62336;-26.094;27.994;2023-06-14T03:42:17;27;27;
73973;PMS5003;62336;-26.094;27.994;2023-06-14T03:44:42;28;27;
73973;PMS5003;62336;-26.094;27.994;2023-06-14T03:47:08;33;32;
73973;PMS5003;62336;-26.094;27.994;2023-06-14T03:49:33;35;33;
73973;PMS5003;62336;-26.094;27.994;2023-06-14T03:51:59;35;32;
73973;PMS5003;62336;-26.094;27.994;2023-06-14T03:54:24;29;28;
73973;PMS5003;62336;-26.094;27.994;2023-06-14T03:56:50;32;29;
73973;PMS5003;62336;-26.094;27.994;2023-06-14T03:59:16;33;30;
73973;PMS5003;62336;-26.094;27.994;2023-06-14T04:01:41;31;30;
73973;PMS5003;62336;-26.094;27.994;2023-06-14T04:04:06;33;31;
73973;PMS5003;62336;-26.094;27.994;2023-06-14T04:06:32;34;32;
73973;PMS5003;62336;-26.094;27.994;2023-06-14T04:08:57;31;29;
73973;PMS5003;62336;-26.094;27.994;2023-06-14T04:11:23;34;33;
73973;PMS5003;62336;-26.094;27.994;2023-06-14T04:13:48;34;32;
73973;PMS5003;62336;-26.094;27.994;2023-06-14T04:16:14;31;30;
73973;PMS5003;62336;-26.094;27.994;2023-06-14T04:18:40;31;29;
73973;PMS5003;62336;-26.094;27.994;2023-06-14T04:21:05;26;26;
73973;PMS5003;62336;-26.094;27.994;2023-06-14T04:23:31;37;32;
73973;PMS5003;62336;-26.094;27.994;2023-06-14T04:25:56;31;31;
73973;PMS5003;62336;-26.094;27.994;2023-06-14T04:28:21;34;32;
73973;PMS5003;62336;-26.094;27.994;2023-06-14T04:30:47;29;28;
73973;PMS5003;62336;-26.094;27.994;2023-06-14T04:33:13;33;33;
73973;PMS5003;62336;-26.094;27.994;2023-06-14T04:35:38;31;30;
73973;PMS5003;62336;-26.094;27.994;2023-06-14T04:38:03;31;29;
73973;PMS5003;62336;-26.094;27.994;2023-06-14T04:40:28;32;29;
73973;PMS5003;62336;-26.094;27.994;2023-06-14T04:42:54;33;32;
73973;PMS5003;62336;-26.094;27.994;2023-06-14T04:45:19;34;30;
73973;PMS5003;62336;-26.094;27.994;2023-06-14T04:47:45;38;34;
73973;PMS5003;62336;-26.094;27.994;2023-06-14T04:50:10;44;41;
73973;PMS5003;62336;-26.094;27.994;2023-06-14T04:52:35;50;47;
73973;PMS5003;62336;-26.094;27.994;2023-06-14T04:55:01;48;45;
73973;PMS5003;62336;-26.094;27.994;2023-06-14T04:57:26;49;48;
73973;PMS5003;62336;-26.094;27.994;2023-06-14T04:59:52;45;42;
73973;PMS5003;62336;-26.094;27.994;2023-06-14T05:02:18;39;37;
73973;PMS5003;62336;-26.094;27.994;2023-06-14T05:04:43;41;39;
73973;PMS5003;62336;-26.094;27.994;2023-06-14T05:07:09;34;33;
73973;PMS5003;62336;-26.094;27.994;2023-06-14T05:09:34;35;34;
73973;PMS5003;62336;-26.094;27.994;2023-06-14T05:12:00;38;36;
73973;PMS5003;62336;-26.094;27.994;2023-06-14T05:14:26;42;38;
73973;PMS5003;62336;-26.094;27.994;2023-06-14T05:16:51;42;39;
73973;PMS5003;62336;-26.094;27.994;2023-06-14T05:19:17;35;33;
73973;PMS5003;62336;-26.094;27.994;2023-06-14T05:21:43;35;34;
73973;PMS5003;62336;-26.094;27.994;2023-06-14T05:24:08;33;33;
73973;PMS5003;62336;-26.094;27.994;2023-06-14T05:26:33;37;35;
73973;PMS5003;62336;-26.094;27.994;2023-06-14T05:28:58;33;31;
73973;PMS5003;62336;-26.094;27.994;2023-06-14T05:31:24;34;32;
73973;PMS5003;62336;-26.094;27.994;2023-06-14T05:33:49;30;28;
73973;PMS5003;62336;-26.094;27.994;2023-06-14T05:36:14;30;29;
73973;PMS5003;62336;-26.094;27.994;2023-06-14T05:38:39;28;27;
73973;PMS5003;62336;-26.094;27.994;2023-06-14T05:41:05;33;32;
73973;PMS5003;62336;-26.094;27.994;2023-06-14T05:43:30;34;33;
73973;PMS5003;62336;-26.094;27.994;2023-06-14T05:45:55;27;25;
73973;PMS5003;62336;-26.094;27.994;2023-06-14T05:48:21;33;31;
73973;PMS5003;62336;-26.094;27.994;2023-06-14T05:50:47;32;30;
73973;PMS5003;62336;-26.094;27.994;2023-06-14T05:53:12;27;25;
73973;PMS5003;62336;-26.094;27.994;2023-06-14T05:55:37;27;26;
73973;PMS5003;62336;-26.094;27.994;2023-06-14T05:58:02;25;24;
73973;PMS5003;62336;-26.094;27.994;2023-06-14T06:00:28;25;25;
73973;PMS5003;62336;-26.094;27.994;2023-06-14T06:02:53;21;20;
73973;PMS5003;62336;-26.094;27.994;2023-06-14T06:05:19;25;22;
73973;PMS5003;62336;-26.094;27.994;2023-06-14T06:07:44;22;19;
73973;PMS5003;62336;-26.094;27.994;2023-06-14T06:10:10;20;19;
73973;PMS5003;62336;-26.094;27.994;2023-06-14T06:12:34;17;16;
73973;PMS5003;62336;-26.094;27.994;2023-06-14T06:15:00;20;19;
73973;PMS5003;62336;-26.094;27.994;2023-06-14T06:17:25;19;19;
73973;PMS5003;62336;-26.094;27.994;2023-06-14T06:19:51;24;22;
73973;PMS5003;62336;-26.094;27.994;2023-06-14T06:22:16;20;18;
73973;PMS5003;62336;-26.094;27.994;2023-06-14T06:24:41;16;16;
73973;PMS5003;62336;-26.094;27.994;2023-06-14T06:27:06;17;16;
73973;PMS5003;62336;-26.094;27.994;2023-06-14T06:29:31;19;19;
73973;PMS5003;62336;-26.094;27.994;2023-06-14T06:31:57;21;20;
73973;PMS5003;62336;-26.094;27.994;2023-06-14T06:34:22;21;19;
73973;PMS5003;62336;-26.094;27.994;2023-06-14T06:36:48;23;21;
73973;PMS5003;62336;-26.094;27.994;2023-06-14T06:39:13;21;20;
73973;PMS5003;62336;-26.094;27.994;2023-06-14T06:41:39;19;18;
73973;PMS5003;62336;-26.094;27.994;2023-06-14T06:44:05;18;18;
73973;PMS5003;62336;-26.094;27.994;2023-06-14T06:46:30;25;23;
73973;PMS5003;62336;-26.094;27.994;2023-06-14T06:48:55;22;21;
73973;PMS5003;62336;-26.094;27.994;2023-06-14T06:51:21;33;30;
73973;PMS5003;62336;-26.094;27.994;2023-06-14T06:53:51;28;27;
73973;PMS5003;62336;-26.094;27.994;2023-06-14T06:56:11;22;22;
73973;PMS5003;62336;-26.094;27.994;2023-06-14T06:58:36;25;23;
73973;PMS5003;62336;-26.094;27.994;2023-06-14T07:01:02;22;21;
73973;PMS5003;62336;-26.094;27.994;2023-06-14T07:03:27;21;20;
73973;PMS5003;62336;-26.094;27.994;2023-06-14T07:05:52;27;25;
73973;PMS5003;62336;-26.094;27.994;2023-06-14T07:08:18;26;25;
73973;PMS5003;62336;-26.094;27.994;2023-06-14T07:10:43;26;26;
73973;PMS5003;62336;-26.094;27.994;2023-06-14T07:13:08;20;19;
73973;PMS5003;62336;-26.094;27.994;2023-06-14T07:15:33;25;23;
73973;PMS5003;62336;-26.094;27.994;2023-06-14T07:17:59;22;20;
73973;PMS5003;62336;-26.094;27.994;2023-06-14T07:20:24;23;22;
73973;PMS5003;62336;-26.094;27.994;2023-06-14T07:22:50;25;22;
73973;PMS5003;62336;-26.094;27.994;2023-06-14T07:25:16;24;23;
73973;PMS5003;62336;-26.094;27.994;2023-06-14T07:27:41;20;20;
73973;PMS5003;62336;-26.094;27.994;2023-06-14T07:30:07;25;24;
73973;PMS5003;62336;-26.094;27.994;2023-06-14T07:32:31;23;22;
73973;PMS5003;62336;-26.094;27.994;2023-06-14T07:34:57;24;22;
73973;PMS5003;62336;-26.094;27.994;2023-06-14T07:37:22;26;24;
73973;PMS5003;62336;-26.094;27.994;2023-06-14T07:39:48;16;16;
73973;PMS5003;62336;-26.094;27.994;2023-06-14T07:42:13;25;24;
73973;PMS5003;62336;-26.094;27.994;2023-06-14T07:44:39;25;24;
73973;PMS5003;62336;-26.094;27.994;2023-06-14T07:47:04;19;19;
73973;PMS5003;62336;-26.094;27.994;2023-06-14T07:49:29;17;16;
73973;PMS5003;62336;-26.094;27.994;2023-06-14T07:51:55;25;24;
73973;PMS5003;62336;-26.094;27.994;2023-06-14T07:54:20;22;21;
73973;PMS5003;62336;-26.094;27.994;2023-06-14T07:56:46;18;17;
73973;PMS5003;62336;-26.094;27.994;2023-06-14T07:59:11;21;20;
73973;PMS5003;62336;-26.094;27.994;2023-06-14T08:01:37;32;32;
73973;PMS5003;62336;-26.094;27.994;2023-06-14T08:04:02;36;35;
73973;PMS5003;62336;-26.094;27.994;2023-06-14T08:06:28;39;38;
73973;PMS5003;62336;-26.094;27.994;2023-06-14T08:08:54;37;33;
73973;PMS5003;62336;-26.094;27.994;2023-06-14T08:11:19;65;59;
73973;PMS5003;62336;-26.094;27.994;2023-06-14T08:13:44;69;66;
73973;PMS5003;62336;-26.094;27.994;2023-06-14T08:16:10;71;69;
73973;PMS5003;62336;-26.094;27.994;2023-06-14T08:18:35;61;59;
73973;PMS5003;62336;-26.094;27.994;2023-06-14T08:21:01;45;43;
73973;PMS5003;62336;-26.094;27.994;2023-06-14T08:23:27;54;50;
73973;PMS5003;62336;-26.094;27.994;2023-06-14T08:25:53;60;52;
73973;PMS5003;62336;-26.094;27.994;2023-06-14T08:28:17;51;48;
73973;PMS5003;62336;-26.094;27.994;2023-06-14T08:30:43;49;46;
73973;PMS5003;62336;-26.094;27.994;2023-06-14T08:33:08;54;50;
73973;PMS5003;62336;-26.094;27.994;2023-06-14T08:35:34;46;44;
73973;PMS5003;62336;-26.094;27.994;2023-06-14T08:37:59;41;38;
73973;PMS5003;62336;-26.094;27.994;2023-06-14T08:40:25;46;44;
73973;PMS5003;62336;-26.094;27.994;2023-06-14T08:42:51;49;43;
73973;PMS5003;62336;-26.094;27.994;2023-06-14T08:45:15;52;43;
73973;PMS5003;62336;-26.094;27.994;2023-06-14T08:47:41;47;43;
73973;PMS5003;62336;-26.094;27.994;2023-06-14T08:50:07;48;44;
73973;PMS5003;62336;-26.094;27.994;2023-06-14T08:52:33;45;39;
73973;PMS5003;62336;-26.094;27.994;2023-06-14T08:54:57;41;37;
73973;PMS5003;62336;-26.094;27.994;2023-06-14T08:57:23;33;32;
73973;PMS5003;62336;-26.094;27.994;2023-06-14T08:59:48;34;32;
73973;PMS5003;62336;-26.094;27.994;2023-06-14T09:02:14;31;31;
73973;PMS5003;62336;-26.094;27.994;2023-06-14T09:04:39;30;28;
73973;PMS5003;62336;-26.094;27.994;2023-06-14T09:07:05;20;20;
73973;PMS5003;62336;-26.094;27.994;2023-06-14T09:09:30;22;20;
73973;PMS5003;62336;-26.094;27.994;2023-06-14T09:11:56;44;41;
73973;PMS5003;62336;-26.094;27.994;2023-06-14T09:14:23;18;15;
73973;PMS5003;62336;-26.094;27.994;2023-06-14T09:16:47;12;12;
73973;PMS5003;62336;-26.094;27.994;2023-06-14T09:19:14;10;10;
73973;PMS5003;62336;-26.094;27.994;2023-06-14T09:21:40;8;8;
73973;PMS5003;62336;-26.094;27.994;2023-06-14T09:24:05;3;3;
73973;PMS5003;62336;-26.094;27.994;2023-06-14T09:26:31;2;2;
73973;PMS5003;62336;-26.094;27.994;2023-06-14T09:28:56;2;2;
73973;PMS5003;62336;-26.094;27.994;2023-06-14T09:31:22;5;5;
73973;PMS5003;62336;-26.094;27.994;2023-06-14T09:33:48;5;5;
73973;PMS5003;62336;-26.094;27.994;2023-06-14T09:36:15;8;8;
73973;PMS5003;62336;-26.094;27.994;2023-06-14T09:38:40;12;9;
73973;PMS5003;62336;-26.094;27.994;2023-06-14T09:41:05;16;16;
73973;PMS5003;62336;-26.094;27.994;2023-06-14T09:43:31;6;6;
73973;PMS5003;62336;-26.094;27.994;2023-06-14T09:45:57;5;4;
73973;PMS5003;62336;-26.094;27.994;2023-06-14T09:48:22;4;4;
73973;PMS5003;62336;-26.094;27.994;2023-06-14T09:50:49;4;3;
73973;PMS5003;62336;-26.094;27.994;2023-06-14T09:53:14;5;4;
73973;PMS5003;62336;-26.094;27.994;2023-06-14T09:55:40;3;3;
73973;PMS5003;62336;-26.094;27.994;2023-06-14T09:58:06;4;2;
73973;PMS5003;62336;-26.094;27.994;2023-06-14T10:00:31;4;3;
73973;PMS5003;62336;-26.094;27.994;2023-06-14T10:02:58;4;3;
73973;PMS5003;62336;-26.094;27.994;2023-06-14T10:05:23;4;3;
73973;PMS5003;62336;-26.094;27.994;2023-06-14T10:07:52;3;3;
73973;PMS5003;62336;-26.094;27.994;2023-06-14T10:10:14;2;2;
73973;PMS5003;62336;-26.094;27.994;2023-06-14T10:12:40;3;2;
73973;PMS5003;62336;-26.094;27.994;2023-06-14T10:15:07;3;3;
73973;PMS5003;62336;-26.094;27.994;2023-06-14T10:17:35;2;2;
73973;PMS5003;62336;-26.094;27.994;2023-06-14T10:20:10;2;2;
73973;PMS5003;62336;-26.094;27.994;2023-06-14T10:22:25;2;1;
73973;PMS5003;62336;-26.094;27.994;2023-06-14T10:24:49;2;2;
73973;PMS5003;62336;-26.094;27.994;2023-06-14T10:27:16;1;1;
73973;PMS5003;62336;-26.094;27.994;2023-06-14T10:32:07;2;2;
73973;PMS5003;62336;-26.094;27.994;2023-06-14T10:34:33;1;1;
73973;PMS5003;62336;-26.094;27.994;2023-06-14T10:37:03;3;3;
73973;PMS5003;62336;-26.094;27.994;2023-06-14T10:39:24;2;2;
73973;PMS5003;62336;-26.094;27.994;2023-06-14T10:41:51;2;2;
73973;PMS5003;62336;-26.094;27.994;2023-06-14T10:46:46;6;6;
73973;PMS5003;62336;-26.094;27.994;2023-06-14T10:49:07;7;6;
73973;PMS5003;62336;-26.094;27.994;2023-06-14T10:51:38;6;6;
73973;PMS5003;62336;-26.094;27.994;2023-06-14T10:53:59;5;5;
73973;PMS5003;62336;-26.094;27.994;2023-06-14T10:56:27;3;3;
73973;PMS5003;62336;-26.094;27.994;2023-06-14T10:58:51;2;2;
73973;PMS5003;62336;-26.094;27.994;2023-06-14T11:01:17;3;3;
73973;PMS5003;62336;-26.094;27.994;2023-06-14T11:03:46;3;3;
73973;PMS5003;62336;-26.094;27.994;2023-06-14T11:06:13;3;3;
73973;PMS5003;62336;-26.094;27.994;2023-06-14T11:08:40;2;2;
73973;PMS5003;62336;-26.094;27.994;2023-06-14T11:11:00;2;2;
73973;PMS5003;62336;-26.094;27.994;2023-06-14T11:13:26;1;1;
73973;PMS5003;62336;-26.094;27.994;2023-06-14T11:15:52;2;2;
73973;PMS5003;62336;-26.094;27.994;2023-06-14T11:18:17;1;1;
73973;PMS5003;62336;-26.094;27.994;2023-06-14T11:20:45;2;2;
73973;PMS5003;62336;-26.094;27.994;2023-06-14T11:23:08;0;0;
73973;PMS5003;62336;-26.094;27.994;2023-06-14T11:25:34;1;1;
73973;PMS5003;62336;-26.094;27.994;2023-06-14T11:28:00;2;2;
73973;PMS5003;62336;-26.094;27.994;2023-06-14T11:30:26;4;4;
73973;PMS5003;62336;-26.094;27.994;2023-06-14T11:32:53;1;1;
73973;PMS5003;62336;-26.094;27.994;2023-06-14T11:35:18;3;3;
73973;PMS5003;62336;-26.094;27.994;2023-06-14T11:37:43;2;2;
73973;PMS5003;62336;-26.094;27.994;2023-06-14T11:40:10;3;3;
73973;PMS5003;62336;-26.094;27.994;2023-06-14T11:42:35;2;1;
73973;PMS5003;62336;-26.094;27.994;2023-06-14T11:45:01;2;2;
73973;PMS5003;62336;-26.094;27.994;2023-06-14T11:47:31;3;3;
73973;PMS5003;62336;-26.094;27.994;2023-06-14T11:49:52;1;1;
73973;PMS5003;62336;-26.094;27.994;2023-06-14T11:52:19;4;4;
73973;PMS5003;62336;-26.094;27.994;2023-06-14T11:54:44;5;5;
73973;PMS5003;62336;-26.094;27.994;2023-06-14T11:57:11;4;3;
73973;PMS5003;62336;-26.094;27.994;2023-06-14T11:59:38;4;4;
73973;PMS5003;62336;-26.094;27.994;2023-06-14T12:02:03;8;6;
73973;PMS5003;62336;-26.094;27.994;2023-06-14T12:04:28;10;9;
73973;PMS5003;62336;-26.094;27.994;2023-06-14T12:06:53;6;6;
73973;PMS5003;62336;-26.094;27.994;2023-06-14T12:09:19;2;2;
73973;PMS5003;62336;-26.094;27.994;2023-06-14T12:11:45;3;3;
73973;PMS5003;62336;-26.094;27.994;2023-06-14T12:14:11;1;1;
73973;PMS5003;62336;-26.094;27.994;2023-06-14T12:16:38;2;2;
73973;PMS5003;62336;-26.094;27.994;2023-06-14T12:21:28;4;4;
73973;PMS5003;62336;-26.094;27.994;2023-06-14T12:23:54;2;2;
73973;PMS5003;62336;-26.094;27.994;2023-06-14T12:26:20;5;4;
73973;PMS5003;62336;-26.094;27.994;2023-06-14T12:28:46;2;2;
73973;PMS5003;62336;-26.094;27.994;2023-06-14T12:31:12;1;1;
73973;PMS5003;62336;-26.094;27.994;2023-06-14T12:33:37;3;3;
73973;PMS5003;62336;-26.094;27.994;2023-06-14T12:36:04;4;4;
73973;PMS5003;62336;-26.094;27.994;2023-06-14T12:38:29;2;2;
73973;PMS5003;62336;-26.094;27.994;2023-06-14T12:40:55;0;0;
73973;PMS5003;62336;-26.094;27.994;2023-06-14T12:43:21;4;2;
73973;PMS5003;62336;-26.094;27.994;2023-06-14T12:45:46;5;5;
73973;PMS5003;62336;-26.094;27.994;2023-06-14T12:48:12;6;6;
73973;PMS5003;62336;-26.094;27.994;2023-06-14T12:50:38;5;5;
73973;PMS5003;62336;-26.094;27.994;2023-06-14T12:53:04;2;2;
73973;PMS5003;62336;-26.094;27.994;2023-06-14T12:55:30;10;7;
73973;PMS5003;62336;-26.094;27.994;2023-06-14T12:57:56;2;2;
73973;PMS5003;62336;-26.094;27.994;2023-06-14T13:00:21;5;5;
73973;PMS5003;62336;-26.094;27.994;2023-06-14T13:02:46;2;1;
73973;PMS5003;62336;-26.094;27.994;2023-06-14T13:05:12;1;1;
73973;PMS5003;62336;-26.094;27.994;2023-06-14T13:07:37;0;0;
73973;PMS5003;62336;-26.094;27.994;2023-06-14T13:10:04;1;1;
73973;PMS5003;62336;-26.094;27.994;2023-06-14T13:12:29;3;1;
73973;PMS5003;62336;-26.094;27.994;2023-06-14T13:14:55;1;1;
73973;PMS5003;62336;-26.094;27.994;2023-06-14T13:17:21;1;1;
73973;PMS5003;62336;-26.094;27.994;2023-06-14T13:19:47;1;1;
73973;PMS5003;62336;-26.094;27.994;2023-06-14T13:22:12;0;0;
73973;PMS5003;62336;-26.094;27.994;2023-06-14T13:24:38;3;3;
73973;PMS5003;62336;-26.094;27.994;2023-06-14T13:27:04;2;2;
73973;PMS5003;62336;-26.094;27.994;2023-06-14T13:29:30;1;1;
73973;PMS5003;62336;-26.094;27.994;2023-06-14T13:31:56;1;1;
73973;PMS5003;62336;-26.094;27.994;2023-06-14T13:34:22;1;1;
73973;PMS5003;62336;-26.094;27.994;2023-06-14T13:36:48;1;0;
73973;PMS5003;62336;-26.094;27.994;2023-06-14T13:39:12;5;5;
73973;PMS5003;62336;-26.094;27.994;2023-06-14T13:41:39;2;2;
73973;PMS5003;62336;-26.094;27.994;2023-06-14T13:44:04;1;0;
73973;PMS5003;62336;-26.094;27.994;2023-06-14T13:46:30;4;3;
73973;PMS5003;62336;-26.094;27.994;2023-06-14T13:48:56;4;3;
73973;PMS5003;62336;-26.094;27.994;2023-06-14T13:51:22;1;1;
73973;PMS5003;62336;-26.094;27.994;2023-06-14T13:53:48;4;4;
73973;PMS5003;62336;-26.094;27.994;2023-06-14T13:56:13;4;4;
73973;PMS5003;62336;-26.094;27.994;2023-06-14T13:58:39;4;4;
73973;PMS5003;62336;-26.094;27.994;2023-06-14T14:01:05;3;3;
73973;PMS5003;62336;-26.094;27.994;2023-06-14T14:03:31;3;3;
73973;PMS5003;62336;-26.094;27.994;2023-06-14T14:05:57;1;1;
73973;PMS5003;62336;-26.094;27.994;2023-06-14T14:08:23;0;0;
73973;PMS5003;62336;-26.094;27.994;2023-06-14T14:10:48;0;0;
73973;PMS5003;62336;-26.094;27.994;2023-06-14T14:13:14;1;1;
73973;PMS5003;62336;-26.094;27.994;2023-06-14T14:15:40;0;0;
73973;PMS5003;62336;-26.094;27.994;2023-06-14T14:18:06;2;2;
73973;PMS5003;62336;-26.094;27.994;2023-06-14T14:20:31;1;1;
73973;PMS5003;62336;-26.094;27.994;2023-06-14T14:22:57;3;3;
73973;PMS5003;62336;-26.094;27.994;2023-06-14T14:25:23;3;2;
73973;PMS5003;62336;-26.094;27.994;2023-06-14T14:27:49;2;2;
73973;PMS5003;62336;-26.094;27.994;2023-06-14T14:30:15;3;3;
73973;PMS5003;62336;-26.094;27.994;2023-06-14T14:32:40;5;5;
73973;PMS5003;62336;-26.094;27.994;2023-06-14T14:35:07;5;5;
73973;PMS5003;62336;-26.094;27.994;2023-06-14T14:37:32;6;5;
73973;PMS5003;62336;-26.094;27.994;2023-06-14T14:39:58;7;6;
73973;PMS5003;62336;-26.094;27.994;2023-06-14T14:42:24;4;4;
73973;PMS5003;62336;-26.094;27.994;2023-06-14T14:44:49;8;7;
73973;PMS5003;62336;-26.094;27.994;2023-06-14T14:47:22;6;5;
73973;PMS5003;62336;-26.094;27.994;2023-06-14T14:49:41;10;7;
73973;PMS5003;62336;-26.094;27.994;2023-06-14T14:52:07;6;6;
73973;PMS5003;62336;-26.094;27.994;2023-06-14T14:54:33;5;4;
73973;PMS5003;62336;-26.094;27.994;2023-06-14T14:56:58;5;5;
73973;PMS5003;62336;-26.094;27.994;2023-06-14T14:59:24;6;6;
73973;PMS5003;62336;-26.094;27.994;2023-06-14T15:01:50;4;4;
73973;PMS5003;62336;-26.094;27.994;2023-06-14T15:04:16;7;7;
73973;PMS5003;62336;-26.094;27.994;2023-06-14T15:06:42;8;7;
73973;PMS5003;62336;-26.094;27.994;2023-06-14T15:09:07;8;8;
73973;PMS5003;62336;-26.094;27.994;2023-06-14T15:11:33;9;9;
73973;PMS5003;62336;-26.094;27.994;2023-06-14T15:13:59;12;10;
73973;PMS5003;62336;-26.094;27.994;2023-06-14T15:16:25;16;13;
73973;PMS5003;62336;-26.094;27.994;2023-06-14T15:18:50;20;20;
73973;PMS5003;62336;-26.094;27.994;2023-06-14T15:21:16;23;20;
73973;PMS5003;62336;-26.094;27.994;2023-06-14T15:23:41;25;24;
73973;PMS5003;62336;-26.094;27.994;2023-06-14T15:26:07;29;27;
73973;PMS5003;62336;-26.094;27.994;2023-06-14T15:28:33;26;25;
73973;PMS5003;62336;-26.094;27.994;2023-06-14T15:30:58;31;29;
73973;PMS5003;62336;-26.094;27.994;2023-06-14T15:33:23;30;30;
73973;PMS5003;62336;-26.094;27.994;2023-06-14T15:35:48;27;25;
73973;PMS5003;62336;-26.094;27.994;2023-06-14T15:38:14;28;27;
73973;PMS5003;62336;-26.094;27.994;2023-06-14T15:40:40;26;25;
73973;PMS5003;62336;-26.094;27.994;2023-06-14T15:43:05;26;25;
73973;PMS5003;62336;-26.094;27.994;2023-06-14T15:45:31;25;23;
73973;PMS5003;62336;-26.094;27.994;2023-06-14T15:47:56;22;22;
73973;PMS5003;62336;-26.094;27.994;2023-06-14T15:50:22;20;19;
73973;PMS5003;62336;-26.094;27.994;2023-06-14T15:52:48;18;18;
73973;PMS5003;62336;-26.094;27.994;2023-06-14T15:55:14;18;18;
73973;PMS5003;62336;-26.094;27.994;2023-06-14T15:57:39;18;15;